sensor_id;sensor_type;location;lat;lon;timestamp;pressure;altitude;pressure_sealevel;temperature;humidity
79584;BME280;69053;57.338;18.700;2023-05-16T00:01:25;100762.44;;;10.07;86.17
79584;BME280;69053;57.338;18.700;2023-05-16T00:06:29;100750.09;;;10.11;85.98
79584;BME280;69053;57.338;18.700;2023-05-16T00:11:31;100741.31;;;10.09;86.35
79584;BME280;69053;57.338;18.700;2023-05-16T00:16:31;100739.63;;;10.08;85.81
79584;BME280;69053;57.338;18.700;2023-05-16T00:21:32;100728.72;;;10.08;85.88
79584;BME280;69053;57.338;18.700;2023-05-16T00:26:33;100711.56;;;10.08;85.74
79584;BME280;69053;57.338;18.700;2023-05-16T00:31:33;100706.94;;;10.08;86.21
79584;BME280;69053;57.338;18.700;2023-05-16T00:36:34;100697.13;;;10.07;86.70
79584;BME280;69053;57.338;18.700;2023-05-16T00:41:35;100687.50;;;10.05;86.70
79584;BME280;69053;57.338;18.700;2023-05-16T00:46:36;100673.28;;;10.03;86.51
79584;BME280;69053;57.338;18.700;2023-05-16T00:51:37;100661.97;;;10.06;86.74
79584;BME280;69053;57.338;18.700;2023-05-16T00:56:38;100658.78;;;10.09;86.63
79584;BME280;69053;57.338;18.700;2023-05-16T01:01:40;100654.22;;;10.09;86.47
79584;BME280;69053;57.338;18.700;2023-05-16T01:06:45;100641.22;;;10.11;86.81
79584;BME280;69053;57.338;18.700;2023-05-16T01:17:57;100627.59;;;10.11;86.71
79584;BME280;69053;57.338;18.700;2023-05-16T01:28:59;100625.31;;;10.08;87.31
79584;BME280;69053;57.338;18.700;2023-05-16T01:34:01;100616.53;;;10.06;87.96
79584;BME280;69053;57.338;18.700;2023-05-16T01:39:08;100607.94;;;10.09;88.47
79584;BME280;69053;57.338;18.700;2023-05-16T01:44:18;100599.09;;;10.14;89.28
79584;BME280;69053;57.338;18.700;2023-05-16T01:49:31;100594.06;;;10.18;89.12
79584;BME280;69053;57.338;18.700;2023-05-16T02:00:58;100572.47;;;10.23;88.77
79584;BME280;69053;57.338;18.700;2023-05-16T02:06:06;100569.09;;;10.27;89.03
79584;BME280;69053;57.338;18.700;2023-05-16T02:11:39;100561.53;;;10.29;89.50
79584;BME280;69053;57.338;18.700;2023-05-16T02:16:50;100548.59;;;10.31;89.57
79584;BME280;69053;57.338;18.700;2023-05-16T02:22:19;100543.78;;;10.34;89.72
79584;BME280;69053;57.338;18.700;2023-05-16T02:27:42;100527.44;;;10.34;89.65
79584;BME280;69053;57.338;18.700;2023-05-16T02:33:13;100517.38;;;10.34;89.69
79584;BME280;69053;57.338;18.700;2023-05-16T02:38:20;100511.09;;;10.34;89.74
79584;BME280;69053;57.338;18.700;2023-05-16T02:43:21;100509.19;;;10.34;89.56
79584;BME280;69053;57.338;18.700;2023-05-16T02:48:21;100502.72;;;10.35;89.40
79584;BME280;69053;57.338;18.700;2023-05-16T02:53:22;100491.81;;;10.35;89.95
79584;BME280;69053;57.338;18.700;2023-05-16T02:58:22;100491.81;;;10.35;89.56
79584;BME280;69053;57.338;18.700;2023-05-16T03:03:23;100488.88;;;10.37;89.73
79584;BME280;69053;57.338;18.700;2023-05-16T03:08:23;100476.09;;;10.37;89.57
79584;BME280;69053;57.338;18.700;2023-05-16T03:13:24;100465.22;;;10.37;89.72
79584;BME280;69053;57.338;18.700;2023-05-16T03:18:24;100452.63;;;10.36;90.20
79584;BME280;69053;57.338;18.700;2023-05-16T03:23:25;100454.31;;;10.37;90.64
79584;BME280;69053;57.338;18.700;2023-05-16T03:28:26;100446.97;;;10.38;91.04
79584;BME280;69053;57.338;18.700;2023-05-16T03:33:27;100450.94;;;10.42;91.14
79584;BME280;69053;57.338;18.700;2023-05-16T03:38:27;100437.94;;;10.44;91.30
79584;BME280;69053;57.338;18.700;2023-05-16T03:43:28;100443.97;;;10.46;90.84
79584;BME280;69053;57.338;18.700;2023-05-16T03:48:28;100431.63;;;10.43;90.66
79584;BME280;69053;57.338;18.700;2023-05-16T03:53:29;100434.34;;;10.43;91.05
79584;BME280;69053;57.338;18.700;2023-05-16T03:58:30;100418.69;;;10.39;91.05
79584;BME280;69053;57.338;18.700;2023-05-16T04:03:31;100412.88;;;10.35;90.76
79584;BME280;69053;57.338;18.700;2023-05-16T04:08:32;100412.00;;;10.35;90.58
79584;BME280;69053;57.338;18.700;2023-05-16T04:13:33;100406.34;;;10.36;90.27
79584;BME280;69053;57.338;18.700;2023-05-16T04:18:33;100397.34;;;10.36;91.06
79584;BME280;69053;57.338;18.700;2023-05-16T04:23:36;100399.25;;;10.35;90.29
79584;BME280;69053;57.338;18.700;2023-05-16T04:28:36;100391.53;;;10.32;90.78
79584;BME280;69053;57.338;18.700;2023-05-16T04:33:37;100391.53;;;10.32;90.34
79584;BME280;69053;57.338;18.700;2023-05-16T04:38:37;100398.88;;;10.31;90.20
79584;BME280;69053;57.338;18.700;2023-05-16T04:43:38;100388.16;;;10.30;90.13
79584;BME280;69053;57.338;18.700;2023-05-16T04:48:39;100388.59;;;10.27;90.59
79584;BME280;69053;57.338;18.700;2023-05-16T04:53:39;100385.28;;;10.25;90.51
79584;BME280;69053;57.338;18.700;2023-05-16T04:58:40;100378.75;;;10.26;90.18
79584;BME280;69053;57.338;18.700;2023-05-16T05:03:40;100383.97;;;10.27;90.18
79584;BME280;69053;57.338;18.700;2023-05-16T05:08:41;100382.28;;;10.33;89.76
79584;BME280;69053;57.338;18.700;2023-05-16T05:13:54;100373.28;;;10.32;89.71
79584;BME280;69053;57.338;18.700;2023-05-16T05:18:54;100373.69;;;10.36;89.49
79584;BME280;69053;57.338;18.700;2023-05-16T05:23:55;100377.25;;;10.37;89.62
79584;BME280;69053;57.338;18.700;2023-05-16T05:28:55;100372.84;;;10.36;89.47
79584;BME280;69053;57.338;18.700;2023-05-16T05:33:56;100373.06;;;10.34;90.15
79584;BME280;69053;57.338;18.700;2023-05-16T05:38:56;100372.63;;;10.37;89.53
79584;BME280;69053;57.338;18.700;2023-05-16T05:43:57;100369.69;;;10.39;89.57
79584;BME280;69053;57.338;18.700;2023-05-16T05:48:58;100366.13;;;10.38;89.56
79584;BME280;69053;57.338;18.700;2023-05-16T05:53:59;100373.84;;;10.41;89.89
79584;BME280;69053;57.338;18.700;2023-05-16T05:59:00;100374.22;;;10.45;89.20
79584;BME280;69053;57.338;18.700;2023-05-16T06:04:00;100376.28;;;10.49;89.24
79584;BME280;69053;57.338;18.700;2023-05-16T06:09:01;100368.06;;;10.56;89.63
79584;BME280;69053;57.338;18.700;2023-05-16T06:14:02;100368.22;;;10.61;89.81
79584;BME280;69053;57.338;18.700;2023-05-16T06:19:03;100367.28;;;10.67;89.37
79584;BME280;69053;57.338;18.700;2023-05-16T06:24:03;100362.41;;;10.76;89.67
79584;BME280;69053;57.338;18.700;2023-05-16T06:29:04;100366.72;;;10.84;89.31
79584;BME280;69053;57.338;18.700;2023-05-16T06:34:04;100372.09;;;10.91;89.43
79584;BME280;69053;57.338;18.700;2023-05-16T06:39:05;100372.25;;;10.96;89.12
79584;BME280;69053;57.338;18.700;2023-05-16T06:44:07;100376.56;;;11.03;88.73
79584;BME280;69053;57.338;18.700;2023-05-16T06:49:07;100371.03;;;11.10;88.76
79584;BME280;69053;57.338;18.700;2023-05-16T06:54:08;100377.69;;;11.14;88.93
79584;BME280;69053;57.338;18.700;2023-05-16T06:59:08;100381.69;;;11.12;88.64
79584;BME280;69053;57.338;18.700;2023-05-16T07:04:09;100377.69;;;11.14;88.61
79584;BME280;69053;57.338;18.700;2023-05-16T07:09:09;100388.47;;;11.09;88.24
79584;BME280;69053;57.338;18.700;2023-05-16T07:14:10;100394.44;;;10.99;88.61
79584;BME280;69053;57.338;18.700;2023-05-16T07:19:11;100395.47;;;10.98;88.80
79584;BME280;69053;57.338;18.700;2023-05-16T07:24:11;100390.94;;;10.92;88.64
79584;BME280;69053;57.338;18.700;2023-05-16T07:29:12;100389.81;;;11.00;89.18
79584;BME280;69053;57.338;18.700;2023-05-16T07:34:12;100390.41;;;11.20;88.87
79584;BME280;69053;57.338;18.700;2023-05-16T07:39:13;100390.09;;;11.29;88.44
79584;BME280;69053;57.338;18.700;2023-05-16T07:44:13;100390.75;;;11.42;87.96
79584;BME280;69053;57.338;18.700;2023-05-16T07:49:14;100389.28;;;11.58;87.71
79584;BME280;69053;57.338;18.700;2023-05-16T07:54:14;100389.56;;;11.69;87.48
79584;BME280;69053;57.338;18.700;2023-05-16T07:59:15;100392.06;;;11.70;87.43
79584;BME280;69053;57.338;18.700;2023-05-16T08:04:16;100381.44;;;11.80;87.30
79584;BME280;69053;57.338;18.700;2023-05-16T08:09:16;100388.13;;;11.96;86.93
79584;BME280;69053;57.338;18.700;2023-05-16T08:14:18;100398.41;;;12.13;86.92
79584;BME280;69053;57.338;18.700;2023-05-16T08:19:18;100403.44;;;12.28;86.68
79584;BME280;69053;57.338;18.700;2023-05-16T08:24:19;100391.53;;;12.34;86.23
79584;BME280;69053;57.338;18.700;2023-05-16T08:29:19;100391.44;;;12.41;86.52
79584;BME280;69053;57.338;18.700;2023-05-16T08:34:20;100402.25;;;12.59;85.89
79584;BME280;69053;57.338;18.700;2023-05-16T08:39:21;100394.88;;;12.71;85.10
79584;BME280;69053;57.338;18.700;2023-05-16T08:44:22;100398.56;;;12.89;84.69
79584;BME280;69053;57.338;18.700;2023-05-16T08:49:25;100397.84;;;12.93;84.44
79584;BME280;69053;57.338;18.700;2023-05-16T08:54:26;100405.69;;;13.13;84.02
79584;BME280;69053;57.338;18.700;2023-05-16T08:59:27;100390.06;;;13.38;84.12
79584;BME280;69053;57.338;18.700;2023-05-16T09:04:28;100392.06;;;13.71;83.10
79584;BME280;69053;57.338;18.700;2023-05-16T09:09:28;100409.75;;;13.80;82.56
79584;BME280;69053;57.338;18.700;2023-05-16T09:14:29;100409.13;;;13.90;82.27
79584;BME280;69053;57.338;18.700;2023-05-16T09:19:40;100403.34;;;14.03;81.42
79584;BME280;69053;57.338;18.700;2023-05-16T09:24:44;100410.22;;;14.06;81.42
79584;BME280;69053;57.338;18.700;2023-05-16T09:29:45;100413.38;;;14.15;81.65
79584;BME280;69053;57.338;18.700;2023-05-16T09:34:51;100409.81;;;14.14;81.08
79584;BME280;69053;57.338;18.700;2023-05-16T09:39:52;100404.53;;;14.41;80.93
79584;BME280;69053;57.338;18.700;2023-05-16T09:44:54;100418.00;;;14.77;80.14
79584;BME280;69053;57.338;18.700;2023-05-16T09:49:56;100417.78;;;15.00;78.72
79584;BME280;69053;57.338;18.700;2023-05-16T09:54:57;100413.44;;;15.05;78.36
79584;BME280;69053;57.338;18.700;2023-05-16T09:59:58;100417.28;;;15.04;78.18
79584;BME280;69053;57.338;18.700;2023-05-16T10:05:01;100415.31;;;15.21;77.63
79584;BME280;69053;57.338;18.700;2023-05-16T10:10:05;100415.31;;;15.43;77.23
79584;BME280;69053;57.338;18.700;2023-05-16T10:15:07;100419.84;;;15.54;76.73
79584;BME280;69053;57.338;18.700;2023-05-16T10:20:10;100413.13;;;15.89;75.65
79584;BME280;69053;57.338;18.700;2023-05-16T10:25:19;100408.69;;;16.48;73.97
79584;BME280;69053;57.338;18.700;2023-05-16T10:30:24;100420.44;;;16.76;73.02
79584;BME280;69053;57.338;18.700;2023-05-16T10:35:24;100409.38;;;17.03;71.99
79584;BME280;69053;57.338;18.700;2023-05-16T10:40:27;100408.75;;;17.43;70.77
79584;BME280;69053;57.338;18.700;2023-05-16T10:45:29;100409.63;;;17.65;70.41
79584;BME280;69053;57.338;18.700;2023-05-16T10:50:37;100407.53;;;17.92;69.76
79584;BME280;69053;57.338;18.700;2023-05-16T10:55:38;100393.78;;;18.23;68.81
79584;BME280;69053;57.338;18.700;2023-05-16T11:00:39;100392.09;;;18.84;67.81
79584;BME280;69053;57.338;18.700;2023-05-16T11:05:40;100390.91;;;19.21;67.20
79584;BME280;69053;57.338;18.700;2023-05-16T11:10:40;100388.53;;;19.54;65.42
79584;BME280;69053;57.338;18.700;2023-05-16T11:15:41;100395.78;;;20.34;64.94
79584;BME280;69053;57.338;18.700;2023-05-16T11:20:42;100395.31;;;20.85;63.73
79584;BME280;69053;57.338;18.700;2023-05-16T11:25:44;100406.44;;;21.33;62.21
79584;BME280;69053;57.338;18.700;2023-05-16T11:30:50;100407.66;;;21.46;61.32
79584;BME280;69053;57.338;18.700;2023-05-16T11:36:05;100419.06;;;21.40;61.19
79584;BME280;69053;57.338;18.700;2023-05-16T11:41:07;100418.50;;;21.43;60.36
79584;BME280;69053;57.338;18.700;2023-05-16T11:46:11;100415.03;;;21.08;60.55
79584;BME280;69053;57.338;18.700;2023-05-16T11:51:13;100407.97;;;20.67;61.07
79584;BME280;69053;57.338;18.700;2023-05-16T11:56:19;100406.16;;;20.13;61.25
79584;BME280;69053;57.338;18.700;2023-05-16T12:01:21;100422.16;;;19.76;62.69
79584;BME280;69053;57.338;18.700;2023-05-16T12:06:22;100431.50;;;19.85;62.17
79584;BME280;69053;57.338;18.700;2023-05-16T12:11:23;100442.78;;;19.29;63.50
79584;BME280;69053;57.338;18.700;2023-05-16T12:16:23;100457.22;;;18.49;64.23
79584;BME280;69053;57.338;18.700;2023-05-16T12:21:24;100455.72;;;17.85;65.71
79584;BME280;69053;57.338;18.700;2023-05-16T12:26:26;100461.28;;;17.32;66.72
79584;BME280;69053;57.338;18.700;2023-05-16T12:31:28;100458.44;;;17.16;67.54
79584;BME280;69053;57.338;18.700;2023-05-16T12:36:31;100461.44;;;16.77;68.27
79584;BME280;69053;57.338;18.700;2023-05-16T12:41:39;100461.25;;;16.52;69.14
79584;BME280;69053;57.338;18.700;2023-05-16T12:46:42;100468.34;;;16.47;69.79
79584;BME280;69053;57.338;18.700;2023-05-16T12:51:51;100455.41;;;16.80;70.05
79584;BME280;69053;57.338;18.700;2023-05-16T12:56:52;100464.59;;;17.39;69.00
79584;BME280;69053;57.338;18.700;2023-05-16T13:01:52;100456.84;;;17.31;66.65
79584;BME280;69053;57.338;18.700;2023-05-16T13:06:53;100454.97;;;17.36;67.73
79584;BME280;69053;57.338;18.700;2023-05-16T13:11:53;100459.28;;;17.80;63.63
79584;BME280;69053;57.338;18.700;2023-05-16T13:16:54;100451.19;;;17.53;64.20
79584;BME280;69053;57.338;18.700;2023-05-16T13:21:55;100464.16;;;17.10;65.31
79584;BME280;69053;57.338;18.700;2023-05-16T13:26:56;100470.38;;;17.37;65.20
79584;BME280;69053;57.338;18.700;2023-05-16T13:31:58;100490.16;;;17.29;65.19
79584;BME280;69053;57.338;18.700;2023-05-16T13:37:13;100485.63;;;16.75;66.49
79584;BME280;69053;57.338;18.700;2023-05-16T13:42:14;100502.06;;;16.38;66.10
79584;BME280;69053;57.338;18.700;2023-05-16T13:47:15;100524.06;;;15.88;68.75
79584;BME280;69053;57.338;18.700;2023-05-16T13:52:18;100529.88;;;15.70;69.62
79584;BME280;69053;57.338;18.700;2023-05-16T13:57:18;100539.44;;;15.67;68.97
79584;BME280;69053;57.338;18.700;2023-05-16T14:02:21;100540.06;;;15.52;69.67
79584;BME280;69053;57.338;18.700;2023-05-16T14:07:22;100548.69;;;15.61;69.64
79584;BME280;69053;57.338;18.700;2023-05-16T14:12:22;100559.09;;;15.20;69.91
79584;BME280;69053;57.338;18.700;2023-05-16T14:17:23;100575.69;;;14.79;71.81
79584;BME280;69053;57.338;18.700;2023-05-16T14:22:23;100565.53;;;14.63;73.20
79584;BME280;69053;57.338;18.700;2023-05-16T14:27:24;100581.31;;;14.73;72.55
79584;BME280;69053;57.338;18.700;2023-05-16T14:32:24;100559.72;;;14.76;73.37
79584;BME280;69053;57.338;18.700;2023-05-16T14:37:25;100552.94;;;15.13;72.78
79584;BME280;69053;57.338;18.700;2023-05-16T14:42:26;100554.91;;;15.34;70.96
79584;BME280;69053;57.338;18.700;2023-05-16T14:47:27;100552.72;;;15.36;71.59
79584;BME280;69053;57.338;18.700;2023-05-16T14:52:31;100565.16;;;15.78;71.39
79584;BME280;69053;57.338;18.700;2023-05-16T14:57:31;100551.75;;;16.58;67.90
79584;BME280;69053;57.338;18.700;2023-05-16T15:02:32;100565.31;;;16.92;65.37
79584;BME280;69053;57.338;18.700;2023-05-16T15:07:32;100575.22;;;16.66;64.83
79584;BME280;69053;57.338;18.700;2023-05-16T15:12:33;100581.25;;;15.91;66.81
79584;BME280;69053;57.338;18.700;2023-05-16T15:17:34;100606.28;;;15.39;68.76
79584;BME280;69053;57.338;18.700;2023-05-16T15:22:35;100605.63;;;14.98;70.06
79584;BME280;69053;57.338;18.700;2023-05-16T15:27:36;100623.53;;;14.72;71.70
79584;BME280;69053;57.338;18.700;2023-05-16T15:32:36;100635.25;;;14.67;71.99
79584;BME280;69053;57.338;18.700;2023-05-16T15:37:39;100637.31;;;14.60;72.01
79584;BME280;69053;57.338;18.700;2023-05-16T15:42:39;100636.31;;;14.25;73.57
79584;BME280;69053;57.338;18.700;2023-05-16T15:47:43;100641.22;;;14.23;73.96
79584;BME280;69053;57.338;18.700;2023-05-16T15:52:43;100651.09;;;14.24;73.23
79584;BME280;69053;57.338;18.700;2023-05-16T15:57:44;100642.22;;;14.46;73.18
79584;BME280;69053;57.338;18.700;2023-05-16T16:02:44;100642.53;;;14.61;72.28
79584;BME280;69053;57.338;18.700;2023-05-16T16:07:47;100636.09;;;14.85;71.45
79584;BME280;69053;57.338;18.700;2023-05-16T16:13:01;100639.06;;;15.63;68.75
79584;BME280;69053;57.338;18.700;2023-05-16T16:18:02;100650.44;;;16.10;68.02
79584;BME280;69053;57.338;18.700;2023-05-16T16:23:02;100644.59;;;15.85;67.18
79584;BME280;69053;57.338;18.700;2023-05-16T16:28:04;100655.22;;;15.98;66.92
79584;BME280;69053;57.338;18.700;2023-05-16T16:33:05;100650.94;;;16.52;66.48
79584;BME280;69053;57.338;18.700;2023-05-16T16:38:06;100654.63;;;16.57;64.62
79584;BME280;69053;57.338;18.700;2023-05-16T16:43:06;100667.59;;;15.79;66.00
79584;BME280;69053;57.338;18.700;2023-05-16T16:48:07;100664.31;;;15.14;68.08
79584;BME280;69053;57.338;18.700;2023-05-16T16:53:10;100665.16;;;15.14;69.38
79584;BME280;69053;57.338;18.700;2023-05-16T16:58:11;100674.88;;;15.90;67.65
79584;BME280;69053;57.338;18.700;2023-05-16T17:03:11;100674.31;;;15.54;67.28
79584;BME280;69053;57.338;18.700;2023-05-16T17:08:12;100670.50;;;15.38;67.97
79584;BME280;69053;57.338;18.700;2023-05-16T17:13:19;100668.69;;;15.27;68.37
79584;BME280;69053;57.338;18.700;2023-05-16T17:18:27;100672.38;;;14.75;70.37
79584;BME280;69053;57.338;18.700;2023-05-16T17:23:28;100671.19;;;14.30;72.18
79584;BME280;69053;57.338;18.700;2023-05-16T17:28:29;100666.84;;;14.05;73.06
79584;BME280;69053;57.338;18.700;2023-05-16T17:33:31;100665.44;;;14.03;73.15
79584;BME280;69053;57.338;18.700;2023-05-16T17:38:32;100659.22;;;14.07;73.35
79584;BME280;69053;57.338;18.700;2023-05-16T17:43:33;100670.63;;;14.16;72.65
79584;BME280;69053;57.338;18.700;2023-05-16T17:48:40;100691.13;;;14.14;73.25
79584;BME280;69053;57.338;18.700;2023-05-16T17:53:42;100683.50;;;14.04;73.57
79584;BME280;69053;57.338;18.700;2023-05-16T17:58:46;100692.22;;;13.89;73.96
79584;BME280;69053;57.338;18.700;2023-05-16T18:03:47;100697.47;;;13.79;74.68
79584;BME280;69053;57.338;18.700;2023-05-16T18:08:47;100714.59;;;13.74;74.52
79584;BME280;69053;57.338;18.700;2023-05-16T18:13:48;100701.72;;;13.63;74.34
79584;BME280;69053;57.338;18.700;2023-05-16T18:18:48;100704.72;;;13.49;75.23
79584;BME280;69053;57.338;18.700;2023-05-16T18:23:49;100698.22;;;13.32;75.04
79584;BME280;69053;57.338;18.700;2023-05-16T18:28:50;100698.16;;;13.08;76.21
79584;BME280;69053;57.338;18.700;2023-05-16T18:33:50;100712.38;;;12.99;76.15
79584;BME280;69053;57.338;18.700;2023-05-16T18:38:51;100720.41;;;12.82;77.06
79584;BME280;69053;57.338;18.700;2023-05-16T18:43:52;100725.34;;;12.73;76.52
79584;BME280;69053;57.338;18.700;2023-05-16T18:48:52;100732.44;;;12.62;77.39
79584;BME280;69053;57.338;18.700;2023-05-16T18:53:56;100734.94;;;12.45;78.01
79584;BME280;69053;57.338;18.700;2023-05-16T18:58:57;100746.00;;;12.32;77.61
79584;BME280;69053;57.338;18.700;2023-05-16T19:03:57;100749.56;;;12.14;78.81
79584;BME280;69053;57.338;18.700;2023-05-16T19:08:58;100753.91;;;11.96;80.58
79584;BME280;69053;57.338;18.700;2023-05-16T19:13:59;100751.31;;;11.83;81.59
79584;BME280;69053;57.338;18.700;2023-05-16T19:19:00;100764.66;;;11.66;82.85
79584;BME280;69053;57.338;18.700;2023-05-16T19:24:00;100757.63;;;11.52;82.79
79584;BME280;69053;57.338;18.700;2023-05-16T19:29:01;100757.22;;;11.48;82.93
79584;BME280;69053;57.338;18.700;2023-05-16T19:34:02;100750.50;;;11.51;82.44
79584;BME280;69053;57.338;18.700;2023-05-16T19:39:02;100737.91;;;11.50;82.26
79584;BME280;69053;57.338;18.700;2023-05-16T19:44:03;100750.13;;;11.47;82.81
79584;BME280;69053;57.338;18.700;2023-05-16T19:49:04;100749.91;;;11.49;82.41
79584;BME280;69053;57.338;18.700;2023-05-16T19:54:05;100754.13;;;11.44;82.66
79584;BME280;69053;57.338;18.700;2023-05-16T19:59:05;100754.97;;;11.45;82.32
79584;BME280;69053;57.338;18.700;2023-05-16T20:04:06;100758.31;;;11.47;82.89
79584;BME280;69053;57.338;18.700;2023-05-16T20:09:25;100757.69;;;11.45;83.06
79584;BME280;69053;57.338;18.700;2023-05-16T20:14:41;100763.31;;;11.50;82.35
79584;BME280;69053;57.338;18.700;2023-05-16T20:20:08;100762.69;;;11.48;82.75
79584;BME280;69053;57.338;18.700;2023-05-16T20:25:09;100766.91;;;11.44;82.48
79584;BME280;69053;57.338;18.700;2023-05-16T20:30:11;100767.56;;;11.39;83.44
79584;BME280;69053;57.338;18.700;2023-05-16T20:35:11;100766.75;;;11.39;83.60
79584;BME280;69053;57.338;18.700;2023-05-16T20:40:13;100753.97;;;11.33;83.72
79584;BME280;69053;57.338;18.700;2023-05-16T20:45:14;100754.44;;;11.30;84.16
79584;BME280;69053;57.338;18.700;2023-05-16T20:50:15;100752.59;;;11.23;84.30
79584;BME280;69053;57.338;18.700;2023-05-16T20:55:15;100755.13;;;11.18;84.63
79584;BME280;69053;57.338;18.700;2023-05-16T21:00:16;100757.06;;;11.11;84.33
79584;BME280;69053;57.338;18.700;2023-05-16T21:05:17;100757.31;;;11.03;84.72
79584;BME280;69053;57.338;18.700;2023-05-16T21:10:17;100763.00;;;10.95;85.23
79584;BME280;69053;57.338;18.700;2023-05-16T21:15:18;100759.69;;;10.93;85.29
79584;BME280;69053;57.338;18.700;2023-05-16T21:20:20;100763.63;;;10.97;84.59
79584;BME280;69053;57.338;18.700;2023-05-16T21:43:48;100763.22;;;10.93;84.75
79584;BME280;69053;57.338;18.700;2023-05-16T21:48:48;100751.50;;;10.93;84.79
79584;BME280;69053;57.338;18.700;2023-05-16T21:53:49;100758.88;;;10.85;85.17
79584;BME280;69053;57.338;18.700;2023-05-16T21:58:49;100765.63;;;10.76;85.82
79584;BME280;69053;57.338;18.700;2023-05-16T22:03:50;100758.94;;;10.65;85.64
79584;BME280;69053;57.338;18.700;2023-05-16T22:08:51;100762.16;;;10.56;86.37
79584;BME280;69053;57.338;18.700;2023-05-16T22:13:52;100753.78;;;10.50;86.16
79584;BME280;69053;57.338;18.700;2023-05-16T22:18:52;100758.41;;;10.43;86.25
79584;BME280;69053;57.338;18.700;2023-05-16T22:23:53;100752.56;;;10.33;86.54
79584;BME280;69053;57.338;18.700;2023-05-16T22:28:53;100753.63;;;10.25;86.23
79584;BME280;69053;57.338;18.700;2023-05-16T22:33:54;100754.44;;;10.19;86.17
79584;BME280;69053;57.338;18.700;2023-05-16T22:38:54;100762.00;;;10.10;85.83
79584;BME280;69053;57.338;18.700;2023-05-16T22:43:55;100754.72;;;9.98;86.47
79584;BME280;69053;57.338;18.700;2023-05-16T22:48:55;100762.47;;;9.87;87.01
79584;BME280;69053;57.338;18.700;2023-05-16T22:53:56;100758.50;;;9.76;87.57
79584;BME280;69053;57.338;18.700;2023-05-16T22:58:56;100747.19;;;9.66;88.05
79584;BME280;69053;57.338;18.700;2023-05-16T23:03:57;100766.03;;;9.61;87.90
79584;BME280;69053;57.338;18.700;2023-05-16T23:08:58;100771.66;;;9.53;88.04
79584;BME280;69053;57.338;18.700;2023-05-16T23:14:04;100771.84;;;9.45;87.64
79584;BME280;69053;57.338;18.700;2023-05-16T23:19:04;100766.41;;;9.38;87.87
79584;BME280;69053;57.338;18.700;2023-05-16T23:24:05;100771.00;;;9.31;87.92
79584;BME280;69053;57.338;18.700;2023-05-16T23:29:06;100772.69;;;9.25;87.82
79584;BME280;69053;57.338;18.700;2023-05-16T23:34:06;100774.97;;;9.22;87.92
79584;BME280;69053;57.338;18.700;2023-05-16T23:39:07;100779.97;;;9.18;87.61
79584;BME280;69053;57.338;18.700;2023-05-16T23:44:07;100794.41;;;9.18;88.43
79584;BME280;69053;57.338;18.700;2023-05-16T23:49:08;100789.38;;;9.22;87.40
79584;BME280;69053;57.338;18.700;2023-05-16T23:54:08;100805.28;;;9.25;87.76
79584;BME280;69053;57.338;18.700;2023-05-16T23:59:09;100796.28;;;9.31;87.88
